createdAt,value
2018-05-06T00:00:25.945Z,0.00
2018-05-06T00:01:26.155Z,0.00
2018-05-06T00:02:29.035Z,0.00
2018-05-06T00:03:26.594Z,0.00
2018-05-06T00:04:26.809Z,0.00
2018-05-06T00:05:27.023Z,0.00
2018-05-06T00:06:27.233Z,0.00
2018-05-06T00:07:27.451Z,0.00
2018-05-06T00:08:27.700Z,0.00
2018-05-06T00:09:27.961Z,0.00
2018-05-06T00:10:28.102Z,0.00
2018-05-06T00:11:28.315Z,0.00
2018-05-06T00:12:28.556Z,0.00
2018-05-06T00:13:28.756Z,0.00
2018-05-06T00:14:28.960Z,0.00
2018-05-06T00:15:29.168Z,0.00
2018-05-06T00:16:29.392Z,0.00
2018-05-06T00:17:31.496Z,0.00
2018-05-06T00:18:29.829Z,0.00
2018-05-06T00:19:30.052Z,0.00
2018-05-06T00:20:30.263Z,0.00
2018-05-06T00:21:30.487Z,0.00
2018-05-06T00:22:30.704Z,0.00
2018-05-06T00:23:33.508Z,0.00
2018-05-06T00:24:31.096Z,0.00
2018-05-06T00:25:31.309Z,0.00
2018-05-06T00:26:33.499Z,0.00
2018-05-06T00:27:31.705Z,0.00
2018-05-06T00:28:31.920Z,0.00
2018-05-06T00:29:32.146Z,0.00
2018-05-06T00:30:32.349Z,0.00
2018-05-06T00:31:34.500Z,0.00
2018-05-06T00:32:32.719Z,0.00
2018-05-06T00:33:32.971Z,0.00
2018-05-06T00:34:33.141Z,0.00
2018-05-06T00:35:33.361Z,0.00
2018-05-06T00:36:33.571Z,0.00
2018-05-06T00:37:35.501Z,0.00
2018-05-06T00:38:33.965Z,0.00
2018-05-06T00:39:34.171Z,0.00
2018-05-06T00:40:34.394Z,0.00
2018-05-06T00:41:36.501Z,0.00
2018-05-06T00:42:34.836Z,0.00
2018-05-06T00:43:35.066Z,0.00
2018-05-06T00:44:35.277Z,0.00
2018-05-06T00:45:35.479Z,0.00
2018-05-06T00:46:35.695Z,0.00
2018-05-06T00:47:35.902Z,0.00
2018-05-06T00:48:36.118Z,0.00
2018-05-06T00:49:36.321Z,0.00
2018-05-06T00:50:36.538Z,0.00
2018-05-06T00:51:36.754Z,0.00
2018-05-06T00:52:36.963Z,0.00
2018-05-06T00:53:37.166Z,0.00
2018-05-06T00:54:37.388Z,0.00
2018-05-06T00:55:37.590Z,0.00
2018-05-06T00:56:37.799Z,0.00
2018-05-06T00:57:38.018Z,0.00
2018-05-06T00:58:38.222Z,0.00
2018-05-06T00:59:38.433Z,0.00
2018-05-06T01:00:40.496Z,0.00
2018-05-06T01:01:38.833Z,0.00
2018-05-06T01:02:40.998Z,0.00
2018-05-06T01:03:39.243Z,0.00
2018-05-06T01:04:39.451Z,0.00
2018-05-06T01:05:39.648Z,0.00
2018-05-06T01:06:43.502Z,0.00
2018-05-06T01:07:44.083Z,0.00
2018-05-06T01:08:41.992Z,0.00
2018-05-06T01:09:40.452Z,0.00
2018-05-06T01:10:42.507Z,0.00
2018-05-06T01:11:40.837Z,0.00
2018-05-06T01:12:41.039Z,0.00
2018-05-06T01:13:41.255Z,0.00
2018-05-06T01:14:41.460Z,0.00
2018-05-06T01:15:41.682Z,0.00
2018-05-06T01:16:41.892Z,0.00
2018-05-06T01:17:42.100Z,0.00
2018-05-06T01:18:42.314Z,0.00
2018-05-06T01:19:44.495Z,0.00
2018-05-06T01:20:42.705Z,0.00
2018-05-06T01:21:42.923Z,0.00
2018-05-06T01:22:43.133Z,0.00
2018-05-06T01:23:43.346Z,0.00
2018-05-06T01:24:43.559Z,0.00
2018-05-06T01:25:43.798Z,0.00
2018-05-06T01:26:45.512Z,0.00
2018-05-06T01:27:44.108Z,0.00
2018-05-06T01:28:45.997Z,0.00
2018-05-06T01:29:44.455Z,0.00
2018-05-06T01:30:44.675Z,0.00
2018-05-06T01:31:44.884Z,0.00
2018-05-06T01:32:45.099Z,0.00
2018-05-06T01:33:45.313Z,0.00
2018-05-06T01:34:45.520Z,0.00
2018-05-06T01:35:45.731Z,0.00
2018-05-06T01:36:45.932Z,0.00
2018-05-06T01:37:46.140Z,0.00
2018-05-06T01:38:46.352Z,0.00
2018-05-06T01:39:46.570Z,0.00
2018-05-06T01:40:48.494Z,0.00
2018-05-06T01:41:46.969Z,0.00
2018-05-06T01:42:49.002Z,0.00
2018-05-06T01:43:47.350Z,0.00
2018-05-06T01:44:47.560Z,0.00
2018-05-06T01:45:47.792Z,0.00
2018-05-06T01:46:47.988Z,0.00
2018-05-06T01:47:48.194Z,0.00
2018-05-06T01:48:49.998Z,0.00
2018-05-06T01:49:48.569Z,0.00
2018-05-06T01:50:48.774Z,0.00
2018-05-06T01:51:50.495Z,0.00
2018-05-06T01:52:49.201Z,0.00
2018-05-06T01:53:49.419Z,0.00
2018-05-06T01:54:49.632Z,0.00
2018-05-06T01:55:49.838Z,0.00
2018-05-06T01:56:50.042Z,0.00
2018-05-06T01:57:50.267Z,0.00
2018-05-06T01:58:50.478Z,0.00
2018-05-06T01:59:50.686Z,0.00
2018-05-06T02:00:50.912Z,0.00
2018-05-06T02:01:54.996Z,0.00
2018-05-06T02:02:51.341Z,0.00
2018-05-06T02:03:51.560Z,0.00
2018-05-06T02:04:51.766Z,0.00
2018-05-06T02:05:52.033Z,0.00
2018-05-06T02:06:54.010Z,0.00
2018-05-06T02:07:52.350Z,0.00
2018-05-06T02:08:52.556Z,0.00
2018-05-06T02:09:52.770Z,0.00
2018-05-06T02:10:52.989Z,0.00
2018-05-06T02:11:53.199Z,0.00
2018-05-06T02:12:53.459Z,0.00
2018-05-06T02:13:53.639Z,0.00
2018-05-06T02:14:53.878Z,0.00
2018-05-06T02:15:54.093Z,0.00
2018-05-06T02:16:54.197Z,0.00
2018-05-06T02:17:54.408Z,0.00
2018-05-06T02:18:54.633Z,0.00
2018-05-06T02:19:54.846Z,0.00
2018-05-06T02:20:55.057Z,0.00
2018-05-06T02:21:55.269Z,0.00
2018-05-06T02:22:55.476Z,0.00
2018-05-06T02:23:55.683Z,0.00
2018-05-06T02:24:55.906Z,0.00
2018-05-06T02:25:56.111Z,0.00
2018-05-06T02:26:56.321Z,0.00
2018-05-06T02:27:56.535Z,0.00
2018-05-06T02:28:56.746Z,0.00
2018-05-06T02:29:56.964Z,0.00
2018-05-06T02:30:57.186Z,0.00
2018-05-06T02:31:57.392Z,0.00
2018-05-06T02:32:57.598Z,0.00
2018-05-06T02:33:57.810Z,0.00
2018-05-06T02:34:58.023Z,0.00
2018-05-06T02:35:58.253Z,0.00
2018-05-06T02:36:58.467Z,0.00
2018-05-06T02:37:58.687Z,0.00
2018-05-06T02:38:58.906Z,0.00
2018-05-06T02:39:59.120Z,0.00
2018-05-06T02:41:00.998Z,0.00
2018-05-06T02:41:59.451Z,0.00
2018-05-06T02:42:59.658Z,0.00
2018-05-06T02:43:59.874Z,0.00
2018-05-06T02:45:00.091Z,0.00
2018-05-06T02:46:00.291Z,0.00
2018-05-06T02:47:00.502Z,0.00
2018-05-06T02:48:00.712Z,0.00
2018-05-06T02:49:00.925Z,0.00
2018-05-06T02:50:01.139Z,0.00
2018-05-06T02:51:01.346Z,0.00
2018-05-06T02:52:03.538Z,0.00
2018-05-06T02:53:01.721Z,0.00
2018-05-06T02:54:03.498Z,0.00
2018-05-06T02:55:04.005Z,0.00
2018-05-06T02:56:02.203Z,0.00
2018-05-06T02:57:05.013Z,0.00
2018-05-06T02:58:02.594Z,0.00
2018-05-06T02:59:02.795Z,0.00
2018-05-06T03:00:03.023Z,0.00
2018-05-06T03:01:03.219Z,0.00
2018-05-06T03:02:05.014Z,0.00
2018-05-06T03:03:05.499Z,0.00
2018-05-06T03:04:03.701Z,0.00
2018-05-06T03:05:05.513Z,0.00
2018-05-06T03:06:04.115Z,0.00
2018-05-06T03:07:04.322Z,0.00
2018-05-06T03:08:04.548Z,0.00
2018-05-06T03:09:04.773Z,4.00
2018-05-06T03:10:04.970Z,4.00
2018-05-06T03:11:05.190Z,0.00
2018-05-06T03:12:05.389Z,4.00
2018-05-06T03:13:05.598Z,4.00
2018-05-06T03:14:07.506Z,4.00
2018-05-06T03:15:07.497Z,4.00
2018-05-06T03:16:06.076Z,4.00
2018-05-06T03:17:06.288Z,8.00
2018-05-06T03:18:06.526Z,8.00
2018-05-06T03:19:08.503Z,8.00
2018-05-06T03:20:06.978Z,8.00
2018-05-06T03:21:07.181Z,12.00
2018-05-06T03:22:07.397Z,12.00
2018-05-06T03:23:07.607Z,16.00
2018-05-06T03:24:07.871Z,16.00
2018-05-06T03:25:10.022Z,20.00
2018-05-06T03:26:08.250Z,20.00
2018-05-06T03:27:08.485Z,28.00
2018-05-06T03:28:08.708Z,32.00
2018-05-06T03:29:08.911Z,36.00
2018-05-06T03:30:13.013Z,40.00
2018-05-06T03:31:09.347Z,44.00
2018-05-06T03:32:09.551Z,52.00
2018-05-06T03:33:09.760Z,60.00
2018-05-06T03:34:09.970Z,72.00
2018-05-06T03:35:12.000Z,80.00
2018-05-06T03:36:10.344Z,92.00
2018-05-06T03:37:10.549Z,104.00
2018-05-06T03:38:10.770Z,112.00
2018-05-06T03:39:11.003Z,128.00
2018-05-06T03:40:11.213Z,148.00
2018-05-06T03:41:11.421Z,164.00
2018-05-06T03:42:11.643Z,180.00
2018-05-06T03:43:11.846Z,200.00
2018-05-06T03:44:12.061Z,224.00
2018-05-06T03:45:12.272Z,248.00
2018-05-06T03:46:12.478Z,272.00
2018-05-06T03:47:14.494Z,296.00
2018-05-06T03:48:12.834Z,324.00
2018-05-06T03:49:14.999Z,352.00
2018-05-06T03:50:15.008Z,384.00
2018-05-06T03:51:13.350Z,416.00
2018-05-06T03:52:13.555Z,452.00
2018-05-06T03:53:15.502Z,484.00
2018-05-06T03:54:13.972Z,520.00
2018-05-06T03:55:14.191Z,560.00
2018-05-06T03:56:16.005Z,596.00
2018-05-06T03:57:16.496Z,636.00
2018-05-06T03:58:14.720Z,680.00
2018-05-06T03:59:14.925Z,720.00
2018-05-06T04:00:16.999Z,764.00
2018-05-06T04:01:18.000Z,808.00
2018-05-06T04:02:15.457Z,852.00
2018-05-06T04:03:15.667Z,900.00
2018-05-06T04:04:15.885Z,944.00
2018-05-06T04:05:16.095Z,992.00
2018-05-06T04:06:16.312Z,1040.00
2018-05-06T04:07:16.522Z,1088.00
2018-05-06T04:08:16.743Z,1136.00
2018-05-06T04:09:16.974Z,1180.00
2018-05-06T04:10:17.169Z,1232.00
2018-05-06T04:11:17.387Z,1276.00
2018-05-06T04:12:17.605Z,1324.00
2018-05-06T04:13:19.514Z,1368.00
2018-05-06T04:14:17.984Z,1420.00
2018-05-06T04:15:18.205Z,1464.00
2018-05-06T04:16:18.415Z,1516.00
2018-05-06T04:17:18.640Z,1568.00
2018-05-06T04:18:18.842Z,1624.00
2018-05-06T04:19:19.096Z,1688.00
2018-05-06T04:20:19.270Z,1740.00
2018-05-06T04:21:19.539Z,1780.00
2018-05-06T04:22:19.696Z,1820.00
2018-05-06T04:23:19.908Z,1856.00
2018-05-06T04:24:20.123Z,1916.00
2018-05-06T04:25:20.339Z,1980.00
2018-05-06T04:26:22.500Z,2036.00
2018-05-06T04:27:20.717Z,2084.00
2018-05-06T04:28:20.945Z,2108.00
2018-05-06T04:29:21.186Z,2136.00
2018-05-06T04:30:22.998Z,2196.00
2018-05-06T04:31:21.614Z,2240.00
2018-05-06T04:32:23.230Z,2272.00
2018-05-06T04:33:21.967Z,2312.00
2018-05-06T04:34:22.174Z,2364.00
2018-05-06T04:35:22.389Z,2416.00
2018-05-06T04:36:22.631Z,2420.00
2018-05-06T04:37:22.735Z,2436.00
2018-05-06T04:38:22.944Z,2480.00
2018-05-06T04:39:23.158Z,2512.00
2018-05-06T04:40:24.999Z,2540.00
2018-05-06T04:41:23.665Z,2596.00
2018-05-06T04:42:23.797Z,2652.00
2018-05-06T04:43:24.020Z,2692.00
2018-05-06T04:44:24.244Z,2728.00
2018-05-06T04:45:24.425Z,2776.00
2018-05-06T04:46:24.643Z,2860.00
2018-05-06T04:47:24.865Z,2960.00
2018-05-06T04:48:25.062Z,2984.00
2018-05-06T04:49:25.299Z,2940.00
2018-05-06T04:50:25.483Z,2932.00
2018-05-06T04:51:25.713Z,2968.00
2018-05-06T04:52:27.497Z,3004.00
2018-05-06T04:53:26.107Z,3040.00
2018-05-06T04:54:26.297Z,3096.00
2018-05-06T04:55:26.501Z,3192.00
2018-05-06T04:56:26.699Z,3256.00
2018-05-06T04:57:26.931Z,3284.00
2018-05-06T04:58:27.131Z,3392.00
2018-05-06T04:59:27.339Z,3604.00
2018-05-06T05:00:27.554Z,3972.00
2018-05-06T05:01:27.779Z,3820.00
2018-05-06T05:02:27.975Z,3688.00
2018-05-06T05:03:28.196Z,3624.00
2018-05-06T05:04:28.441Z,3616.00
2018-05-06T05:05:28.629Z,3856.00
2018-05-06T05:06:32.500Z,3856.00
2018-05-06T05:07:28.951Z,3592.00
2018-05-06T05:08:29.172Z,3656.00
2018-05-06T05:09:29.394Z,3672.00
2018-05-06T05:10:32.503Z,3672.00
2018-05-06T05:11:29.714Z,3808.00
2018-05-06T05:12:29.920Z,3960.00
2018-05-06T05:13:30.145Z,4076.00
2018-05-06T05:14:30.356Z,4140.00
2018-05-06T05:15:34.508Z,4136.00
2018-05-06T05:16:32.504Z,5236.00
2018-05-06T05:17:30.857Z,6028.00
2018-05-06T05:18:31.075Z,5748.00
2018-05-06T05:19:31.299Z,4948.00
2018-05-06T05:20:31.510Z,4676.00
2018-05-06T05:21:31.721Z,6148.00
2018-05-06T05:22:31.942Z,6540.00
2018-05-06T05:23:32.160Z,6620.00
2018-05-06T05:24:32.367Z,8388.00
2018-05-06T05:25:32.583Z,8532.00
2018-05-06T05:26:32.797Z,7780.00
2018-05-06T05:27:35.501Z,8936.00
2018-05-06T05:28:33.225Z,10872.00
2018-05-06T05:29:33.425Z,11248.00
2018-05-06T05:30:33.631Z,10560.00
2018-05-06T05:31:33.858Z,10344.00
2018-05-06T05:32:34.069Z,11296.00
2018-05-06T05:33:34.286Z,12312.00
2018-05-06T05:34:34.557Z,12324.00
2018-05-06T05:35:34.709Z,11688.00
2018-05-06T05:36:34.948Z,11524.00
2018-05-06T05:37:35.037Z,11904.00
2018-05-06T05:38:35.255Z,12484.00
2018-05-06T05:39:35.470Z,12572.00
2018-05-06T05:40:35.683Z,12304.00
2018-05-06T05:41:35.902Z,12076.00
2018-05-06T05:42:36.114Z,12156.00
2018-05-06T05:43:36.321Z,12532.00
2018-05-06T05:44:36.546Z,13144.00
2018-05-06T05:45:44.503Z,13812.00
2018-05-06T05:46:36.965Z,14020.00
2018-05-06T05:47:37.198Z,13992.00
2018-05-06T05:48:37.396Z,13940.00
2018-05-06T05:49:37.615Z,14464.00
2018-05-06T05:50:39.500Z,15168.00
2018-05-06T05:51:37.967Z,15744.00
2018-05-06T05:52:38.180Z,15840.00
2018-05-06T05:53:38.460Z,15200.00
2018-05-06T05:54:38.612Z,14688.00
2018-05-06T05:55:38.846Z,14720.00
2018-05-06T05:56:39.044Z,15648.00
2018-05-06T05:57:39.254Z,16864.00
2018-05-06T05:58:39.475Z,17632.00
2018-05-06T05:59:39.684Z,18400.00
2018-05-06T06:00:39.912Z,19200.00
2018-05-06T06:01:40.130Z,20352.00
2018-05-06T06:02:42.006Z,20896.00
2018-05-06T06:03:40.475Z,20064.00
2018-05-06T06:04:40.691Z,18944.00
2018-05-06T06:05:40.915Z,18496.00
2018-05-06T06:06:43.002Z,19008.00
2018-05-06T06:07:41.348Z,19776.00
2018-05-06T06:08:41.567Z,20128.00
2018-05-06T06:09:41.840Z,19456.00
2018-05-06T06:10:41.997Z,18592.00
2018-05-06T06:11:42.219Z,19168.00
2018-05-06T06:12:42.431Z,20704.00
2018-05-06T06:13:44.512Z,22464.00
2018-05-06T06:14:42.855Z,23616.00
2018-05-06T06:15:43.069Z,23968.00
2018-05-06T06:16:43.285Z,24064.00
2018-05-06T06:17:43.517Z,23936.00
2018-05-06T06:18:43.728Z,24192.00
2018-05-06T06:19:43.941Z,24480.00
2018-05-06T06:20:44.169Z,24384.00
2018-05-06T06:21:44.391Z,23904.00
2018-05-06T06:22:44.631Z,23744.00
2018-05-06T06:23:46.504Z,24544.00
2018-05-06T06:24:44.980Z,25568.00
2018-05-06T06:25:45.209Z,26720.00
2018-05-06T06:26:45.423Z,27264.00
2018-05-06T06:27:47.534Z,27104.00
2018-05-06T06:28:45.888Z,26176.00
2018-05-06T06:29:46.101Z,25408.00
2018-05-06T06:30:46.333Z,25792.00
2018-05-06T06:31:46.543Z,28064.00
2018-05-06T06:32:46.757Z,30816.00
2018-05-06T06:33:49.509Z,32480.00
2018-05-06T06:34:47.113Z,32928.00
2018-05-06T06:35:49.025Z,31424.00
2018-05-06T06:36:49.008Z,30048.00
2018-05-06T06:37:49.545Z,30368.00
2018-05-06T06:38:47.920Z,32224.00
2018-05-06T06:39:52.015Z,34016.00
2018-05-06T06:40:48.363Z,35136.00
2018-05-06T06:41:48.618Z,35264.00
2018-05-06T06:42:49.813Z,34880.00
2018-05-06T06:43:49.051Z,34176.00
2018-05-06T06:44:49.300Z,34176.00
2018-05-06T06:45:51.008Z,35360.00
2018-05-06T06:46:49.633Z,36704.00
2018-05-06T06:47:50.844Z,37056.00
2018-05-06T06:48:50.082Z,36768.00
2018-05-06T06:49:50.299Z,36896.00
2018-05-06T06:50:50.511Z,37504.00
2018-05-06T06:51:50.731Z,38976.00
2018-05-06T06:52:50.963Z,39840.00
2018-05-06T06:53:51.184Z,40160.00
2018-05-06T06:54:51.426Z,38944.00
2018-05-06T06:55:54.520Z,36896.00
2018-05-06T06:56:51.886Z,35360.00
2018-05-06T06:57:51.998Z,35040.00
2018-05-06T06:58:54.039Z,36288.00
2018-05-06T06:59:53.459Z,38624.00
2018-05-06T07:00:52.568Z,40960.00
2018-05-06T07:01:54.530Z,41984.00
2018-05-06T07:02:56.883Z,41536.00
2018-05-06T07:03:53.225Z,40800.00
2018-05-06T07:04:55.009Z,40704.00
2018-05-06T07:05:56.568Z,41632.00
2018-05-06T07:06:53.786Z,43936.00
2018-05-06T07:07:59.514Z,45056.00
2018-05-06T07:08:54.218Z,44480.00
2018-05-06T07:09:54.444Z,43840.00
2018-05-06T07:10:58.511Z,43136.00
2018-05-06T07:11:54.855Z,42496.00
2018-05-06T07:12:55.027Z,42912.00
2018-05-06T07:13:57.025Z,43936.00
2018-05-06T07:15:02.019Z,45440.00
2018-05-06T07:15:57.013Z,46496.00
2018-05-06T07:16:59.507Z,46720.00
2018-05-06T07:17:57.516Z,46688.00
2018-05-06T07:18:57.019Z,46272.00
2018-05-06T07:19:58.022Z,46016.00
2018-05-06T07:20:58.008Z,46208.00
2018-05-06T07:21:56.477Z,46560.00
2018-05-06T07:22:58.508Z,46720.00
2018-05-06T07:24:00.539Z,46560.00
2018-05-06T07:25:00.016Z,46048.00
2018-05-06T07:25:59.028Z,45344.00
2018-05-06T07:26:59.999Z,45056.00
2018-05-06T07:27:57.727Z,45088.00
2018-05-06T07:28:59.530Z,44896.00
2018-05-06T07:30:04.009Z,44384.00
2018-05-06T07:31:00.056Z,44576.00
2018-05-06T07:31:58.757Z,45472.00
2018-05-06T07:33:00.340Z,47008.00
2018-05-06T07:33:58.924Z,47776.00
2018-05-06T07:34:59.183Z,46304.00
2018-05-06T07:35:59.993Z,43872.00
2018-05-06T07:36:59.518Z,43072.00
2018-05-06T07:38:03.541Z,42816.00
2018-05-06T07:38:59.901Z,44576.00
2018-05-06T07:40:00.116Z,46688.00
2018-05-06T07:41:00.371Z,48288.00
2018-05-06T07:42:07.047Z,47744.00
2018-05-06T07:43:02.546Z,45568.00
2018-05-06T07:44:01.795Z,43008.00
2018-05-06T07:45:01.072Z,41952.00
2018-05-06T07:46:02.234Z,43136.00
2018-05-06T07:47:05.015Z,44992.00
2018-05-06T07:48:03.014Z,46272.00
2018-05-06T07:49:01.737Z,47232.00
2018-05-06T07:50:03.533Z,48672.00
2018-05-06T07:51:03.009Z,50464.00
2018-05-06T07:52:04.015Z,53216.00
2018-05-06T07:53:02.620Z,55072.00
2018-05-06T07:54:04.517Z,55008.00
2018-05-06T07:55:03.998Z,51712.00
2018-05-06T07:56:03.965Z,47296.00
2018-05-06T07:57:05.016Z,42400.00
2018-05-06T07:58:03.608Z,40000.00
2018-05-06T07:59:04.861Z,41120.00
2018-05-06T08:00:04.997Z,45504.00
2018-05-06T08:01:06.059Z,50336.00
2018-05-06T08:02:06.013Z,52192.00
2018-05-06T08:03:07.040Z,49696.00
2018-05-06T08:04:04.648Z,46912.00
2018-05-06T08:06:36.790Z,49760.00
2018-05-06T08:07:38.524Z,56736.00
2018-05-06T08:08:39.028Z,64384.00
2018-05-06T08:09:40.022Z,68192.00
2018-05-06T08:10:38.610Z,67040.00
2018-05-06T08:11:39.525Z,61760.00
2018-05-06T08:12:40.534Z,56672.00
2018-05-06T08:13:39.299Z,54464.00
2018-05-06T08:14:40.058Z,55872.00
2018-05-06T08:15:40.029Z,58880.00
2018-05-06T08:16:40.560Z,61472.00
2018-05-06T08:17:42.526Z,61568.00
2018-05-06T08:18:41.549Z,57632.00
2018-05-06T08:19:39.137Z,53248.00
2018-05-06T08:20:39.362Z,51072.00
2018-05-06T08:21:41.026Z,53376.00
2018-05-06T08:22:41.538Z,58400.00
2018-05-06T08:23:41.539Z,62016.00
2018-05-06T08:24:41.528Z,60992.00
2018-05-06T08:25:43.023Z,55968.00
2018-05-06T08:26:40.497Z,50272.00
2018-05-06T08:27:45.516Z,46656.00
2018-05-06T08:28:41.879Z,48384.00
2018-05-06T08:29:45.037Z,53984.00
2018-05-06T08:30:41.293Z,60384.00
2018-05-06T08:31:43.024Z,65600.00
2018-05-06T08:32:43.528Z,68032.00
2018-05-06T08:33:41.780Z,67168.00
2018-05-06T08:34:42.527Z,62848.00
2018-05-06T08:35:47.025Z,56480.00
2018-05-06T08:36:46.022Z,50848.00
2018-05-06T08:37:44.022Z,48800.00
2018-05-06T08:38:42.736Z,51680.00
2018-05-06T08:39:46.526Z,57696.00
2018-05-06T08:40:43.122Z,64096.00
2018-05-06T08:41:43.673Z,68480.00
2018-05-06T08:42:48.597Z,67904.00
2018-05-06T08:43:43.737Z,64096.00
2018-05-06T08:44:46.039Z,59264.00
2018-05-06T08:45:46.030Z,55936.00
2018-05-06T08:46:52.027Z,54592.00
2018-05-06T08:47:44.496Z,56320.00
2018-05-06T08:48:46.525Z,60000.00
2018-05-06T08:49:44.913Z,63584.00
2018-05-06T08:50:47.066Z,65184.00
2018-05-06T08:51:48.071Z,66240.00
2018-05-06T08:52:45.431Z,67968.00
2018-05-06T08:53:47.489Z,70976.00
2018-05-06T08:54:45.841Z,73376.00
2018-05-06T08:55:47.088Z,73536.00
2018-05-06T08:56:48.978Z,69760.00
2018-05-06T08:57:48.029Z,66016.00
2018-05-06T08:58:48.603Z,63808.00
2018-05-06T08:59:46.779Z,63712.00
2018-05-06T09:00:48.486Z,65632.00
2018-05-06T09:01:47.101Z,68736.00
2018-05-06T09:02:51.201Z,70048.00
2018-05-06T09:03:49.565Z,69536.00
2018-05-06T09:04:47.799Z,67744.00
2018-05-06T09:05:49.032Z,64832.00
2018-05-06T09:06:50.030Z,64832.00
2018-05-06T09:07:50.090Z,65952.00
2018-05-06T09:08:52.533Z,66400.00
2018-05-06T09:09:48.936Z,65728.00
2018-05-06T09:10:51.060Z,65024.00
2018-05-06T09:11:53.915Z,64480.00
2018-05-06T09:12:51.078Z,63648.00
2018-05-06T09:13:50.574Z,62528.00
2018-05-06T09:14:51.559Z,63104.00
2018-05-06T09:15:51.543Z,64288.00
2018-05-06T09:16:50.984Z,64864.00
2018-05-06T09:17:52.034Z,64192.00
2018-05-06T09:18:54.531Z,62528.00
2018-05-06T09:19:52.531Z,62496.00
2018-05-06T09:20:52.535Z,64128.00
2018-05-06T09:21:51.042Z,65056.00
2018-05-06T09:22:53.050Z,65888.00
2018-05-06T09:23:51.378Z,65632.00
2018-05-06T09:24:53.563Z,64512.00
2018-05-06T09:25:51.798Z,64160.00
2018-05-06T09:26:54.000Z,63648.00
2018-05-06T09:27:54.030Z,63648.00
2018-05-06T09:28:52.402Z,65088.00
2018-05-06T09:29:56.532Z,64928.00
2018-05-06T09:30:52.784Z,62944.00
2018-05-06T09:31:54.546Z,61344.00
2018-05-06T09:32:53.140Z,61088.00
2018-05-06T09:33:55.026Z,61600.00
2018-05-06T09:34:53.517Z,61440.00
2018-05-06T09:35:53.766Z,62464.00
2018-05-06T09:36:54.880Z,63968.00
2018-05-06T09:37:54.140Z,65600.00
2018-05-06T09:38:54.254Z,66304.00
2018-05-06T09:39:54.510Z,65312.00
2018-05-06T09:40:54.714Z,64384.00
2018-05-06T09:41:58.493Z,64160.00
2018-05-06T09:42:59.034Z,63232.00
2018-05-06T09:43:56.289Z,64352.00
2018-05-06T09:44:55.396Z,65472.00
2018-05-06T09:45:57.530Z,64640.00
2018-05-06T09:46:58.527Z,61024.00
2018-05-06T09:47:59.528Z,57792.00
2018-05-06T09:48:56.127Z,56096.00
2018-05-06T09:49:57.482Z,56864.00
2018-05-06T09:50:58.532Z,60640.00
2018-05-06T09:51:58.542Z,65344.00
2018-05-06T09:52:58.535Z,67744.00
2018-05-06T09:53:59.049Z,66688.00
2018-05-06T09:54:59.990Z,63136.00
2018-05-06T09:55:57.484Z,57472.00
2018-05-06T09:56:59.552Z,54592.00
2018-05-06T09:57:57.932Z,55616.00
2018-05-06T09:59:01.518Z,61056.00
2018-05-06T10:00:00.081Z,66720.00
2018-05-06T10:00:58.458Z,69792.00
2018-05-06T10:02:07.491Z,68768.00
2018-05-06T10:02:59.493Z,63392.00
2018-05-06T10:03:58.991Z,57344.00
2018-05-06T10:05:03.996Z,54720.00
2018-05-06T10:05:59.533Z,56160.00
2018-05-06T10:07:00.028Z,61216.00
2018-05-06T10:08:03.536Z,68000.00
2018-05-06T10:08:59.875Z,69472.00
2018-05-06T10:10:00.111Z,67808.00
2018-05-06T10:11:02.005Z,64576.00
2018-05-06T10:12:06.994Z,60992.00
2018-05-06T10:13:02.538Z,60160.00
2018-05-06T10:14:00.875Z,61888.00
2018-05-06T10:15:01.124Z,64192.00
2018-05-06T10:16:04.074Z,67872.00
2018-05-06T10:17:02.474Z,69664.00
2018-05-06T10:18:01.602Z,69696.00
2018-05-06T10:19:04.543Z,68512.00
2018-05-06T10:20:02.072Z,68224.00
2018-05-06T10:21:02.203Z,68256.00
2018-05-06T10:22:03.984Z,68704.00
2018-05-06T10:23:02.618Z,68640.00
2018-05-06T10:24:06.546Z,67968.00
2018-05-06T10:25:04.541Z,64800.00
2018-05-06T10:26:06.047Z,62432.00
2018-05-06T10:27:05.033Z,60800.00
2018-05-06T10:28:08.574Z,61280.00
2018-05-06T10:29:05.558Z,62048.00
2018-05-06T10:30:06.000Z,64928.00
2018-05-06T10:31:04.245Z,67552.00
2018-05-06T10:32:06.038Z,68704.00
2018-05-06T10:33:04.639Z,67584.00
2018-05-06T10:34:06.491Z,65568.00
2018-05-06T10:35:05.113Z,63136.00
2018-05-06T10:36:07.037Z,61664.00
2018-05-06T10:37:09.014Z,59712.00
2018-05-06T10:38:06.588Z,56288.00
2018-05-06T10:39:07.022Z,54144.00
2018-05-06T10:40:07.002Z,53984.00
2018-05-06T10:41:08.042Z,55904.00
2018-05-06T10:42:08.538Z,59936.00
2018-05-06T10:43:08.584Z,65376.00
2018-05-06T10:44:07.081Z,69440.00
2018-05-06T10:45:09.063Z,70784.00
2018-05-06T10:46:08.004Z,71040.00
2018-05-06T10:47:09.570Z,69856.00
2018-05-06T10:48:07.773Z,67424.00
2018-05-06T10:49:10.012Z,64032.00
2018-05-06T10:50:11.000Z,61792.00
2018-05-06T10:51:08.991Z,60000.00
2018-05-06T10:52:20.540Z,59808.00
2018-05-06T10:53:08.754Z,59712.00
2018-05-06T10:54:12.576Z,59040.00
2018-05-06T10:55:11.041Z,57632.00
2018-05-06T10:56:11.042Z,56768.00
2018-05-06T10:57:11.532Z,56256.00
2018-05-06T10:58:11.553Z,56768.00
2018-05-06T10:59:11.041Z,57920.00
2018-05-06T11:00:12.039Z,58784.00
2018-05-06T11:01:12.687Z,59360.00
2018-05-06T11:02:11.259Z,60032.00
2018-05-06T11:03:11.014Z,60256.00
2018-05-06T11:04:13.037Z,59872.00
2018-05-06T11:05:14.048Z,59552.00
2018-05-06T11:06:11.505Z,59200.00
2018-05-06T11:07:13.539Z,58592.00
2018-05-06T11:08:13.587Z,57376.00
2018-05-06T11:09:13.543Z,56864.00
2018-05-06T11:10:12.291Z,55520.00
2018-05-06T11:11:12.530Z,54304.00
2018-05-06T11:12:12.691Z,54624.00
2018-05-06T11:13:15.615Z,54848.00
2018-05-06T11:14:14.538Z,54528.00
2018-05-06T11:15:15.047Z,54624.00
2018-05-06T11:16:13.512Z,54208.00
2018-05-06T11:17:15.541Z,53472.00
2018-05-06T11:18:13.935Z,53920.00
2018-05-06T11:19:15.007Z,54848.00
2018-05-06T11:20:14.257Z,54912.00
2018-05-06T11:21:16.052Z,43680.00
2018-05-06T11:22:14.650Z,10728.00
2018-05-06T11:23:14.905Z,8832.00
2018-05-06T11:24:18.538Z,8836.00
2018-05-06T11:25:18.017Z,8816.00
2018-05-06T11:26:17.095Z,8808.00
2018-05-06T11:27:16.554Z,8784.00
2018-05-06T11:28:16.665Z,8816.00
2018-05-06T11:29:15.887Z,8792.00
2018-05-06T11:30:16.116Z,8808.00
2018-05-06T11:31:16.396Z,8820.00
2018-05-06T11:32:24.573Z,8824.00
2018-05-06T11:33:20.603Z,8848.00
2018-05-06T11:34:17.077Z,8900.00
2018-05-06T11:35:17.200Z,8864.00
2018-05-06T11:36:17.443Z,8860.00
2018-05-06T11:37:19.566Z,8908.00
2018-05-06T11:38:19.084Z,8904.00
2018-05-06T11:39:17.991Z,9064.00
2018-05-06T11:40:18.110Z,9032.00
2018-05-06T11:41:20.045Z,9332.00
2018-05-06T11:42:20.039Z,9404.00
2018-05-06T11:43:21.564Z,9552.00
2018-05-06T11:44:20.542Z,9628.00
2018-05-06T11:45:25.038Z,9772.00
2018-05-06T11:46:25.087Z,10848.00
2018-05-06T11:47:25.546Z,40320.00
2018-05-06T11:48:25.542Z,45024.00
2018-05-06T11:49:22.129Z,47616.00
2018-05-06T11:50:20.232Z,47776.00
2018-05-06T11:51:22.048Z,49952.00
2018-05-06T11:52:20.651Z,52192.00
2018-05-06T11:53:20.885Z,52352.00
2018-05-06T11:54:23.043Z,51072.00
2018-05-06T11:55:21.256Z,49184.00
2018-05-06T11:56:23.082Z,48608.00
2018-05-06T11:57:23.539Z,48288.00
2018-05-06T11:58:23.537Z,49376.00
2018-05-06T11:59:23.004Z,50080.00
2018-05-06T12:00:26.083Z,50368.00
2018-05-06T12:01:24.081Z,50112.00
2018-05-06T12:02:22.655Z,48672.00
2018-05-06T12:03:22.907Z,46560.00
2018-05-06T12:04:23.078Z,44000.00
2018-05-06T12:05:24.821Z,41920.00
2018-05-06T12:06:23.434Z,40736.00
2018-05-06T12:07:23.667Z,41888.00
2018-05-06T12:08:23.900Z,44288.00
2018-05-06T12:09:25.143Z,46848.00
2018-05-06T12:10:26.048Z,45920.00
2018-05-06T12:11:26.532Z,37152.00
2018-05-06T12:12:26.054Z,23392.00
2018-05-06T12:13:32.544Z,23072.00
2018-05-06T12:14:24.874Z,31104.00
2018-05-06T12:15:32.044Z,35200.00
2018-05-06T12:16:27.999Z,39936.00
2018-05-06T12:17:26.484Z,41440.00
2018-05-06T12:18:29.544Z,43520.00